Terminal Aerodrome Forecast
Issued by NWS Sterling, VA

Home | Current Version | Previous Version | Text Only | Print | Product List | Glossary On
Versions: 1 2 3 4 5 6 7 8 9 10 11 12 13 14 15 16
000
FTUS41 KLWX 200500 RRA
TAFCHO
TAF
KCHO 200541Z 2006/2106 00000KT P6SM FEW200
     FM201500 19006KT P6SM SCT200
     FM201800 19010KT P6SM SCT200
     FM202200 20006KT P6SM BKN200
     FM210100 00000KT P6SM BKN110=

USA.gov is the U.S. government's official web portal to all federal, state and local government web resources and services.